Espaço - Ciências - Fenômenos Naturais
Meteógrafos Informações Meteorológicas em tempo real

Aeroporto de Congonhas

Histórico do Tempo
Temperatura atual: 21 graus 69 F    Umidade relativa: 77 %
Velocidade do vento: 05 nós 9 Km/h    Direção: 050 graus NE
Ajuste do altímetro ..: 1017 HPA
Visibilidade: Ótima    Tempo presente: Poucas nuvens esparsas

Observação
Poucas nuvens a 1100 Pés., Nuvens esparsas a 1500 Pés.

Data Hora BRTTempo°CUmidadePressãoVentoVisib.
21/11 - 09:55   Poucas nuvens esparsas 21° 77% 1017 Nordeste/9 km/h 9999
21/11 - 08:55   Céu Encoberto 19° 82% 1016 Leste/9 km/h 9999
21/11 - 07:55   Céu Encoberto 19° 82% 1016 Leste/9 km/h 9999
21/11 - 06:55   Parcialmente Nublado 19° 82% 1015 Sul/5 km/h OK
21/11 - 05:55   Muitas Nuvens 18° 82% 1014 Este-nordeste/9 km/h 9999
21/11 - 04:55   Parcialmente Nublado 18° 82% 1014 Leste/7 km/h 9999
21/11 - 03:55   Poucas nuvens esparsas 18° 82% 1014 Leste/9 km/h 9999
21/11 - 02:55   Céu Encoberto 18° 82% 1015 Sudeste/9 km/h 9999
21/11 - 01:55   Poucas nuvens esparsas 18° 88% 1017 Sudeste/12 km/h OK
21/11 - 00:55   Poucas nuvens esparsas 18° 88% 1017 Sudeste/12 km/h OK
20/11 - 23:55   Céu Encoberto 18° 82% 1017 Este-sudeste/12 km/h OK
20/11 - 22:55   Céu Encoberto 18° 82% 1018 Sudeste/14 km/h OK
20/11 - 21:55   Céu Encoberto 18° 88% 1017 Sudeste/16 km/h OK
20/11 - 20:55   Céu Encoberto 18° 88% 1017 Sudeste/16 km/h OK
20/11 - 19:55   Céu Encoberto 19° 82% 1015 Sudeste/14 km/h OK
20/11 - 18:55   Poucas nuvens esparsas 19° 88% 1015 Sul-sudeste/21 km/h OK
20/11 - 17:55   Poucas nuvens esparsas 19° 88% 1015 Sul-sudeste/21 km/h OK
20/11 - 16:55   Chuvisco fraco 19° 93% 1016 Sul-sudeste/18 km/h OK
20/11 - 15:55   Poucas nuvens esparsas 20° 88% 1016 Sul-sudeste/16 km/h OK
20/11 - 14:55   Parcialmente Nublado 21° 88% 1017 Sudeste/10 km/h OK
20/11 - 13:55   Chuvisco fraco ND° ND% 1017 Sul-sudeste/10 km/h 2500
20/11 - 12:55   Chuvisco fraco 20° 88% 1017 Sul-sudeste/12 km/h 5000
20/11 - 11:55   Parcialmente Nublado 21° 77% 1017 Sul-sudeste/10 km/h 9999
20/11 - 10:55   Parcialmente Nublado 21° 77% 1017 Sudeste/12 km/h OK


Apolo11.com - Todos os direitos reservados - 2000 - 2017
Política de Privacidade   |     Termo de Uso e Licenciamento   |  -   Entre em Contato

"Liberdade, essa palavra que o sonho humano alimenta, que não há ninguém que explique e ningém que não entenda." - Cecília Meireles